Time;durP1;ratioP1;P1;durP2;ratioP2;P2;SDS_P1;SDS_P2;PMS_P1;PMS_P2;Temp;Humidity;BMP_temperature;BMP_pressure;BME280_temperature;BME280_humidity;BME280_pressure;Samples;Min_cycle;Max_cycle;Signal;HPM_P1;HPM_P2
2021/12/19 00:00:12;;;;;;;37.90;22.70;;;;;;;2.47;97.65;98341.91;5085303;28;20382;-63
2021/12/19 00:10:22;;;;;;;40.28;24.73;;;;;;;2.23;99.41;98352.66;5092055;28;20460;-64
2021/12/19 00:12:48;;;;;;;40.72;23.77;;;;;;;2.26;98.18;98359.34;5091237;28;20398;-64
2021/12/19 00:15:13;;;;;;;39.43;24.80;;;;;;;2.37;98.78;98356.63;5090323;28;20420;-64
2021/12/19 00:17:38;;;;;;;39.47;24.03;;;;;;;2.21;98.79;98351.16;5091633;28;20393;-65
2021/12/19 00:20:05;;;;;;;38.97;24.23;;;;;;;1.92;100.00;98344.19;5091425;28;20419;-65
2021/12/19 00:22:31;;;;;;;38.90;23.80;;;;;;;2.33;99.91;98342.31;5091679;28;20692;-64
2021/12/19 00:24:56;;;;;;;40.43;24.00;;;;;;;2.27;99.31;98346.28;5091695;28;20724;-64
2021/12/19 00:27:22;;;;;;;39.10;24.40;;;;;;;2.46;98.43;98342.84;5091762;28;20423;-64
2021/12/19 00:29:47;;;;;;;42.70;24.15;;;;;;;2.41;97.80;98338.09;5091478;28;20378;-64
2021/12/19 00:32:12;;;;;;;40.27;23.30;;;;;;;2.43;98.44;98328.44;5091198;28;20393;-64
2021/12/19 00:34:38;;;;;;;38.22;23.55;;;;;;;2.51;97.89;98335.50;5090828;28;20394;-64
2021/12/19 00:37:03;;;;;;;42.30;23.93;;;;;;;2.13;99.96;98327.75;5089909;28;20761;-66
2021/12/19 00:39:30;;;;;;;42.10;23.93;;;;;;;2.23;99.97;98324.19;5091625;28;20392;-64
2021/12/19 00:41:55;;;;;;;40.63;24.17;;;;;;;2.44;99.51;98318.91;5091037;28;20878;-64
2021/12/19 00:44:25;;;;;;;36.70;22.53;;;;;;;2.29;99.61;98315.91;5091301;28;20451;-65
2021/12/19 00:47:03;;;;;;;36.75;22.13;;;;;;;2.41;100.00;98301.88;5091010;28;20761;-64
2021/12/19 00:49:30;;;;;;;38.03;22.80;;;;;;;2.64;99.50;98299.78;5091760;28;20896;-64
2021/12/19 00:51:55;;;;;;;38.42;23.08;;;;;;;2.59;98.61;98296.00;5091373;28;20452;-64
2021/12/19 00:54:21;;;;;;;42.07;24.80;;;;;;;2.61;98.92;98296.69;5095258;28;20401;-65
2021/12/19 00:56:48;;;;;;;43.97;25.33;;;;;;;2.74;98.18;98302.34;5095712;28;20416;-64
2021/12/19 00:59:15;;;;;;;41.10;24.35;;;;;;;2.59;98.54;98298.56;5095305;28;20412;-64
2021/12/19 01:01:40;;;;;;;42.58;23.48;;;;;;;3.01;97.69;98292.03;5093254;28;20470;-65
2021/12/19 01:04:11;;;;;;;40.37;22.60;;;;;;;2.77;98.92;98304.69;5094140;28;20390;-67
2021/12/19 01:06:37;;;;;;;37.80;21.27;;;;;;;2.69;98.84;98302.78;5094945;28;20461;-64
2021/12/19 01:09:05;;;;;;;36.42;21.70;;;;;;;2.83;97.94;98299.75;5095034;28;20398;-64
2021/12/19 01:11:30;;;;;;;35.67;20.25;;;;;;;3.03;96.23;98291.91;5095251;28;20396;-64
2021/12/19 01:13:56;;;;;;;37.80;21.25;;;;;;;2.74;97.14;98290.22;5094632;28;20397;-64
2021/12/19 01:16:22;;;;;;;42.25;21.88;;;;;;;2.61;98.79;98287.16;5094728;28;20392;-64
2021/12/19 01:18:47;;;;;;;41.77;22.23;;;;;;;2.79;98.32;98288.03;5095323;28;20397;-65
2021/12/19 01:21:13;;;;;;;39.73;20.90;;;;;;;2.41;100.00;98277.75;5094912;28;20494;-64
2021/12/19 01:23:38;;;;;;;37.33;21.25;;;;;;;2.56;99.60;98293.69;5094720;28;20398;-64
2021/12/19 01:26:04;;;;;;;36.85;20.75;;;;;;;2.40;100.00;98282.13;5095238;28;20385;-64
2021/12/19 01:28:29;;;;;;;38.60;21.00;;;;;;;2.31;100.00;98272.63;5094738;28;20897;-64
2021/12/19 01:30:55;;;;;;;36.73;21.43;;;;;;;2.35;100.00;98286.06;5093365;28;20474;-64
2021/12/19 01:33:20;;;;;;;40.75;21.25;;;;;;;2.34;100.00;98289.63;5094000;28;20386;-65
2021/12/19 01:35:45;;;;;;;40.50;21.50;;;;;;;2.21;100.00;98289.91;5092975;28;20424;-65
2021/12/19 01:38:11;;;;;;;44.30;22.23;;;;;;;2.24;100.00;98291.38;5094191;28;20410;-64
2021/12/19 01:40:37;;;;;;;41.28;21.02;;;;;;;2.30;100.00;98283.91;5094805;28;20398;-64
2021/12/19 01:43:02;;;;;;;39.17;22.53;;;;;;;2.27;100.00;98293.72;5094321;28;20821;-65
2021/12/19 01:45:33;;;;;;;38.97;21.00;;;;;;;2.12;100.00;98298.47;5094241;28;20393;-64
2021/12/19 01:48:01;;;;;;;40.37;22.70;;;;;;;2.04;100.00;98299.16;5094456;28;20386;-64
2021/12/19 01:50:29;;;;;;;40.28;21.98;;;;;;;2.42;100.00;98295.75;5094108;28;20427;-64
2021/12/19 01:52:55;;;;;;;38.08;21.17;;;;;;;2.15;100.00;98305.97;5093810;28;20406;-64
2021/12/19 01:55:21;;;;;;;45.13;22.75;;;;;;;2.41;100.00;98299.28;5094238;28;20877;-64
2021/12/19 01:57:46;;;;;;;43.80;22.60;;;;;;;2.34;100.00;98287.06;5094592;28;20871;-64
2021/12/19 02:00:28;;;;;;;39.42;20.98;;;;;;;2.30;100.00;98286.50;5094089;28;20386;-64
2021/12/19 02:02:54;;;;;;;37.22;20.83;;;;;;;2.29;100.00;98287.44;5093100;28;20386;-64
2021/12/19 02:05:20;;;;;;;42.20;22.13;;;;;;;2.38;100.00;98285.81;5094171;28;20429;-69
2021/12/19 02:07:48;;;;;;;43.42;22.00;;;;;;;2.42;100.00;98282.81;5093543;28;20405;-64
2021/12/19 02:10:25;;;;;;;41.40;21.98;;;;;;;2.36;100.00;98282.53;5093887;28;20875;-64
2021/12/19 02:12:52;;;;;;;40.28;21.98;;;;;;;2.43;100.00;98278.44;5093476;28;20382;-64
2021/12/19 02:15:21;;;;;;;41.55;21.80;;;;;;;2.29;100.00;98281.44;5092113;28;20401;-67
2021/12/19 02:17:48;;;;;;;41.63;21.80;;;;;;;2.25;100.00;98280.09;5093602;28;20393;-64
2021/12/19 02:20:15;;;;;;;36.47;19.73;;;;;;;2.16;100.00;98278.34;5093853;28;20387;-64
2021/12/19 02:22:42;;;;;;;36.17;19.50;;;;;;;2.29;100.00;98284.84;5093961;28;20397;-64
2021/12/19 02:25:07;;;;;;;37.88;20.52;;;;;;;2.36;100.00;98292.88;5093334;28;20797;-64
2021/12/19 02:27:33;;;;;;;45.13;20.38;;;;;;;1.93;100.00;98283.78;5093280;28;20389;-64
2021/12/19 02:29:59;;;;;;;41.22;21.88;;;;;;;2.23;100.00;98282.03;5093912;28;20401;-64
2021/12/19 02:32:27;;;;;;;39.17;20.67;;;;;;;2.27;100.00;98266.09;5093500;28;20886;-64
2021/12/19 02:34:55;;;;;;;41.78;21.88;;;;;;;2.19;100.00;98260.78;5092376;28;20493;-64
2021/12/19 02:50:32;;;;;;;39.70;21.50;;;;;;;2.24;100.00;98250.00;5079209;28;20873;-69
2021/12/19 02:52:59;;;;;;;39.63;21.30;;;;;;;2.35;100.00;98253.25;5092775;28;20394;-64
2021/12/19 02:55:24;;;;;;;38.88;20.80;;;;;;;2.35;100.00;98255.03;5092641;28;20404;-64
2021/12/19 02:57:52;;;;;;;53.67;21.43;;;;;;;2.28;100.00;98248.81;5092955;28;20394;-64
2021/12/19 03:00:21;;;;;;;49.80;21.80;;;;;;;2.55;100.00;98259.22;5092632;28;20587;-64
2021/12/19 03:02:47;;;;;;;40.97;21.27;;;;;;;2.30;100.00;98239.94;5092530;28;20801;-65
2021/12/19 03:05:12;;;;;;;47.35;21.63;;;;;;;2.17;100.00;98247.19;5092441;28;20382;-64
2021/12/19 03:07:41;;;;;;;51.72;21.67;;;;;;;2.11;100.00;98241.75;5092607;28;20398;-64
2021/12/19 03:13:27;;;;;;;67.82;22.30;;;;;;;2.00;100.00;98240.94;5092932;28;20390;-64
2021/12/19 03:18:11;;;;;;;49.15;21.17;;;;;;;2.25;100.00;98233.53;5093006;28;20750;-64
2021/12/19 03:20:38;;;;;;;44.95;21.70;;;;;;;2.18;100.00;98233.28;5092516;28;20832;-64
2021/12/19 03:23:07;;;;;;;53.75;21.85;;;;;;;2.43;100.00;98221.53;5092531;28;20423;-64
2021/12/19 03:25:33;;;;;;;52.13;21.60;;;;;;;2.21;100.00;98227.03;5092259;28;20465;-64
2021/12/19 03:28:00;;;;;;;60.92;20.83;;;;;;;1.91;100.00;98215.88;5090691;28;20435;-65
2021/12/19 03:30:25;;;;;;;56.40;21.55;;;;;;;1.65;100.00;98219.97;5092421;28;20419;-64
2021/12/19 03:32:52;;;;;;;64.67;22.40;;;;;;;1.73;100.00;98216.72;5092882;28;20382;-64
2021/12/19 03:35:19;;;;;;;52.63;21.60;;;;;;;1.61;100.00;98222.03;5091856;28;20420;-64
2021/12/19 03:37:45;;;;;;;63.47;22.52;;;;;;;1.98;100.00;98211.81;5092069;28;20413;-70
2021/12/19 03:40:13;;;;;;;55.10;23.67;;;;;;;1.94;100.00;98212.22;5091759;28;20386;-64
2021/12/19 03:42:47;;;;;;;46.23;23.13;;;;;;;2.09;100.00;98209.06;5092423;28;20444;-65
2021/12/19 03:45:16;;;;;;;51.33;22.95;;;;;;;2.51;100.00;98208.69;5092131;28;20386;-64
2021/12/19 03:47:42;;;;;;;47.28;22.98;;;;;;;2.46;100.00;98197.94;5092035;28;20422;-64
2021/12/19 03:50:11;;;;;;;47.92;22.05;;;;;;;2.54;100.00;98205.84;5092304;28;20398;-64
2021/12/19 03:52:37;;;;;;;41.88;21.65;;;;;;;2.25;100.00;98205.91;5091839;28;20386;-64
2021/12/19 03:55:03;;;;;;;41.55;21.30;;;;;;;2.20;100.00;98194.34;5091507;28;20808;-70
2021/12/19 03:57:29;;;;;;;39.97;20.15;;;;;;;2.09;100.00;98197.91;5091580;28;20414;-64
2021/12/19 03:59:54;;;;;;;39.70;19.50;;;;;;;2.22;100.00;98197.63;5091586;28;20432;-64
2021/12/19 04:02:26;;;;;;;35.90;19.50;;;;;;;2.60;100.00;98194.94;5091430;28;20405;-65
2021/12/19 04:04:56;;;;;;;36.83;19.27;;;;;;;2.34;100.00;98194.72;5091945;28;20739;-64
2021/12/19 04:07:23;;;;;;;37.22;19.42;;;;;;;2.47;100.00;98197.81;5090391;28;20398;-64
2021/12/19 04:09:49;;;;;;;36.50;18.23;;;;;;;2.37;100.00;98193.63;5090486;28;20834;-65
2021/12/19 04:12:15;;;;;;;34.60;18.00;;;;;;;2.21;100.00;98183.88;5090475;28;20382;-64
2021/12/19 04:14:41;;;;;;;36.40;18.23;;;;;;;2.35;100.00;98183.41;5091377;28;20874;-64
2021/12/19 04:17:06;;;;;;;34.58;18.38;;;;;;;2.46;100.00;98183.25;5091617;28;20390;-64
2021/12/19 04:19:32;;;;;;;31.83;16.50;;;;;;;2.31;100.00;98176.09;5091786;28;20739;-65
2021/12/19 04:21:58;;;;;;;33.93;17.77;;;;;;;2.33;100.00;98169.81;5091030;28;20841;-64
2021/12/19 04:24:23;;;;;;;31.53;15.77;;;;;;;2.46;100.00;98169.50;5091689;28;20468;-64
2021/12/19 04:26:49;;;;;;;31.08;16.90;;;;;;;2.45;100.00;98167.88;5090126;28;20398;-64
2021/12/19 04:29:14;;;;;;;36.80;18.33;;;;;;;2.43;100.00;98162.03;5091553;28;20409;-64
2021/12/19 04:31:40;;;;;;;43.90;20.90;;;;;;;2.20;100.00;98158.97;5091590;28;20394;-64
2021/12/19 04:34:06;;;;;;;36.95;18.17;;;;;;;2.50;100.00;98160.50;5091471;28;20386;-64
2021/12/19 04:36:38;;;;;;;35.10;17.33;;;;;;;2.39;100.00;98147.75;5091186;28;20432;-64
2021/12/19 04:42:19;;;;;;;36.88;16.75;;;;;;;2.62;100.00;98149.00;5091467;28;20420;-65
2021/12/19 04:53:09;;;;;;;30.87;16.87;;;;;;;2.49;100.00;98158.88;5091105;28;20427;-64
2021/12/19 05:00:42;;;;;;;35.05;17.17;;;;;;;2.75;100.00;98170.19;5091038;28;20422;-66
2021/12/19 05:03:25;;;;;;;30.67;15.47;;;;;;;2.53;100.00;98167.16;5090478;28;20402;-65
2021/12/19 05:14:07;;;;;;;27.88;14.57;;;;;;;2.43;100.00;98168.03;5090929;28;20459;-64
2021/12/19 05:16:35;;;;;;;27.87;15.17;;;;;;;2.47;100.00;98164.19;5091217;28;20412;-64
2021/12/19 05:19:06;;;;;;;28.23;14.70;;;;;;;2.33;100.00;98158.66;5091356;28;20378;-64
2021/12/19 05:21:34;;;;;;;29.35;15.15;;;;;;;2.26;100.00;98155.81;5091259;28;20406;-64
2021/12/19 05:26:25;;;;;;;27.47;14.77;;;;;;;2.22;100.00;98158.81;5090739;28;20385;-64
2021/12/19 05:28:52;;;;;;;30.60;15.40;;;;;;;2.46;100.00;98164.31;5091100;28;20401;-69
2021/12/19 05:31:19;;;;;;;27.05;14.43;;;;;;;2.24;100.00;98151.72;5091118;28;20482;-64
2021/12/19 05:33:45;;;;;;;30.03;14.57;;;;;;;2.21;100.00;98152.03;5090700;28;20416;-65
2021/12/19 05:46:34;;;;;;;27.25;14.75;;;;;;;2.48;100.00;98152.88;5094399;28;20907;-65
2021/12/19 05:48:59;;;;;;;26.08;14.52;;;;;;;2.22;100.00;98154.47;5094422;28;20394;-64
2021/12/19 05:51:24;;;;;;;27.27;14.17;;;;;;;2.17;100.00;98146.31;5094324;28;20898;-64
2021/12/19 05:53:50;;;;;;;25.13;13.37;;;;;;;1.99;100.00;98140.22;5093376;28;20382;-64
2021/12/19 05:56:15;;;;;;;26.77;14.50;;;;;;;2.00;100.00;98145.28;5094166;28;20439;-64
2021/12/19 05:58:41;;;;;;;23.97;13.53;;;;;;;2.05;100.00;98134.50;5094597;28;20473;-64
2021/12/19 06:01:07;;;;;;;25.90;13.55;;;;;;;2.19;100.00;98143.56;5092930;28;20398;-64
2021/12/19 06:03:32;;;;;;;26.17;14.17;;;;;;;2.32;100.00;98150.09;5092920;28;20444;-66
2021/12/19 06:05:58;;;;;;;26.75;14.23;;;;;;;2.19;100.00;98135.81;5093969;28;20405;-64
2021/12/19 06:08:23;;;;;;;25.13;13.00;;;;;;;1.98;100.00;98136.84;5093927;28;20427;-64
2021/12/19 06:10:48;;;;;;;23.93;13.40;;;;;;;2.30;100.00;98130.47;5094149;28;20460;-64
2021/12/19 06:13:14;;;;;;;24.37;13.00;;;;;;;2.16;100.00;98139.50;5094010;28;20741;-64
2021/12/19 06:15:39;;;;;;;24.17;13.37;;;;;;;2.08;100.00;98134.22;5093669;28;20409;-65
2021/12/19 06:18:05;;;;;;;24.08;12.77;;;;;;;1.97;100.00;98127.44;5094372;28;20390;-64
2021/12/19 06:20:33;;;;;;;21.50;12.33;;;;;;;1.78;100.00;98126.66;5093786;28;20470;-64
2021/12/19 06:22:59;;;;;;;22.60;12.25;;;;;;;1.80;100.00;98115.22;5093566;28;20450;-64
2021/12/19 06:25:25;;;;;;;22.90;12.20;;;;;;;1.72;100.00;98120.28;5093952;28;20390;-64
2021/12/19 06:27:51;;;;;;;21.47;12.13;;;;;;;2.07;100.00;98122.22;5093856;28;20394;-64
2021/12/19 06:30:17;;;;;;;20.47;11.43;;;;;;;1.85;100.00;98115.63;5093630;28;20746;-64
2021/12/19 06:32:42;;;;;;;20.90;12.05;;;;;;;1.87;100.00;98118.06;5093522;28;20501;-64
2021/12/19 06:35:17;;;;;;;20.37;12.10;;;;;;;1.75;100.00;98107.06;5093084;28;20404;-63
2021/12/19 06:37:43;;;;;;;17.85;11.32;;;;;;;1.96;100.00;98110.28;5093784;28;20422;-64
2021/12/19 06:40:11;;;;;;;19.70;11.00;;;;;;;1.84;100.00;98103.66;5093494;28;20750;-63
2021/12/19 06:42:36;;;;;;;19.63;11.55;;;;;;;1.97;100.00;98104.16;5093729;28;20417;-64
2021/12/19 06:45:03;;;;;;;17.27;10.57;;;;;;;1.81;100.00;98114.28;5091799;28;20419;-64
2021/12/19 06:47:29;;;;;;;21.83;11.30;;;;;;;1.74;100.00;98102.84;5092827;28;20801;-64
2021/12/19 06:49:54;;;;;;;20.33;10.82;;;;;;;1.70;100.00;98103.28;5092291;28;20378;-64
2021/12/19 06:52:20;;;;;;;15.77;9.57;;;;;;;1.63;100.00;98092.66;5092617;28;20385;-64
2021/12/19 06:54:45;;;;;;;15.43;9.70;;;;;;;1.77;100.00;98101.78;5093155;28;20386;-64
2021/12/19 06:57:10;;;;;;;17.27;10.20;;;;;;;1.95;100.00;98094.94;5092958;28;20467;-64
2021/12/19 06:59:36;;;;;;;16.10;10.10;;;;;;;2.05;100.00;98100.91;5092737;28;20807;-64
2021/12/19 07:02:01;;;;;;;14.45;9.15;;;;;;;1.79;100.00;98094.69;5092351;28;20430;-65
2021/12/19 07:04:27;;;;;;;15.07;9.33;;;;;;;1.92;100.00;98105.53;5092868;28;20389;-65
2021/12/19 07:06:52;;;;;;;14.77;9.43;;;;;;;1.95;100.00;98111.25;5093014;28;20390;-64
2021/12/19 07:09:18;;;;;;;15.47;8.83;;;;;;;1.89;100.00;98116.19;5093493;28;20982;-65
2021/12/19 07:11:43;;;;;;;14.90;9.27;;;;;;;1.73;100.00;98115.94;5092768;28;20745;-64
2021/12/19 07:14:09;;;;;;;14.43;8.77;;;;;;;1.64;100.00;98112.38;5092661;28;20400;-63
2021/12/19 07:16:34;;;;;;;14.87;8.73;;;;;;;1.72;100.00;98115.13;5092600;28;20739;-64
2021/12/19 07:19:00;;;;;;;11.43;7.27;;;;;;;1.85;100.00;98113.03;5092505;28;20983;-64
2021/12/19 07:21:25;;;;;;;12.50;8.50;;;;;;;1.63;100.00;98115.91;5092267;28;20410;-63
2021/12/19 07:23:51;;;;;;;15.47;8.80;;;;;;;1.71;100.00;98112.66;5092842;28;20393;-65
2021/12/19 07:26:17;;;;;;;12.47;8.10;;;;;;;1.83;100.00;98106.41;5092696;28;20716;-63
2021/12/19 07:28:45;;;;;;;14.77;8.63;;;;;;;1.96;100.00;98099.94;5092505;28;20457;-66
2021/12/19 07:31:11;;;;;;;11.95;7.82;;;;;;;1.86;100.00;98101.75;5091931;28;20409;-64
2021/12/19 07:33:36;;;;;;;14.07;8.23;;;;;;;1.86;100.00;98109.50;5092464;28;20477;-64
2021/12/19 07:36:02;;;;;;;13.33;8.40;;;;;;;1.81;98.99;98091.00;5091944;28;20889;-64
2021/12/19 07:38:36;;;;;;;12.77;8.27;;;;;;;1.92;100.00;98102.97;5092605;28;20394;-63
2021/12/19 07:41:02;;;;;;;14.75;8.65;;;;;;;1.87;100.00;98099.97;5092146;28;20759;-64
2021/12/19 07:43:28;;;;;;;12.60;7.68;;;;;;;1.67;100.00;98114.72;5092295;28;20394;-64
2021/12/19 07:45:53;;;;;;;10.97;7.37;;;;;;;1.56;100.00;98115.66;5092525;28;20390;-64
2021/12/19 07:48:19;;;;;;;10.70;7.17;;;;;;;1.55;100.00;98110.66;5092088;28;20412;-63
2021/12/19 07:50:44;;;;;;;11.45;7.25;;;;;;;1.70;100.00;98114.44;5092493;28;20390;-63
2021/12/19 07:53:09;;;;;;;10.00;7.10;;;;;;;1.83;100.00;98107.22;5091770;28;20878;-65
2021/12/19 07:55:35;;;;;;;10.50;6.93;;;;;;;2.01;100.00;98104.69;5091856;28;20401;-65
2021/12/19 07:58:01;;;;;;;10.50;6.70;;;;;;;1.93;100.00;98108.00;5091592;28;20461;-63
2021/12/19 08:00:26;;;;;;;10.93;7.17;;;;;;;1.89;100.00;98108.41;5090161;28;20389;-64
2021/12/19 08:02:52;;;;;;;10.70;7.33;;;;;;;2.12;100.00;98104.53;5090949;28;20947;-65
2021/12/19 08:05:21;;;;;;;9.53;6.67;;;;;;;2.20;99.81;98096.06;5091672;28;20442;-64
2021/12/19 08:07:47;;;;;;;10.40;6.90;;;;;;;2.08;99.19;98093.66;5091868;28;20442;-64
2021/12/19 08:11:39;;;;;;;9.48;7.07;;;;;;;1.90;100.00;98097.91;5091828;28;20447;-64
2021/12/19 08:13:00;;;;;;;10.32;7.07;;;;;;;2.05;100.00;98095.72;5091270;28;20390;-65
2021/12/19 08:15:25;;;;;;;11.57;7.85;;;;;;;1.89;100.00;98092.91;5092186;28;20416;-64
2021/12/19 08:17:51;;;;;;;11.15;7.38;;;;;;;2.20;100.00;98094.31;5091711;28;20397;-64
2021/12/19 08:20:17;;;;;;;10.07;6.83;;;;;;;2.09;100.00;98074.63;5092282;28;20920;-64
2021/12/19 08:22:44;;;;;;;9.88;6.40;;;;;;;2.23;100.00;98075.13;5092488;28;20472;-64
2021/12/19 08:25:10;;;;;;;9.10;6.35;;;;;;;2.27;100.00;98084.22;5091762;28;20472;-62
2021/12/19 08:27:37;;;;;;;9.55;6.65;;;;;;;2.33;98.65;98081.88;5091479;28;20539;-67
2021/12/19 08:30:09;;;;;;;9.60;6.47;;;;;;;2.14;100.00;98081.94;5091833;28;20858;-63
2021/12/19 08:32:35;;;;;;;9.18;6.43;;;;;;;2.17;99.06;98086.03;5091569;28;20397;-63
2021/12/19 08:35:01;;;;;;;10.25;6.40;;;;;;;2.28;99.38;98080.69;5091542;28;20386;-63
2021/12/19 08:37:27;;;;;;;8.35;5.63;;;;;;;2.48;98.43;98088.19;5091604;28;20410;-63
2021/12/19 08:39:52;;;;;;;8.63;5.90;;;;;;;2.28;98.18;98096.19;5091431;28;20892;-64
2021/12/19 08:42:18;;;;;;;7.63;5.60;;;;;;;2.34;97.95;98088.66;5090987;28;20470;-64
2021/12/19 08:44:44;;;;;;;8.43;6.17;;;;;;;2.12;99.25;98083.84;5089683;28;20389;-64
2021/12/19 08:47:10;;;;;;;8.95;6.00;;;;;;;2.47;97.73;98088.34;5087809;28;20420;-62
2021/12/19 08:49:36;;;;;;;8.52;6.43;;;;;;;2.29;98.81;98083.09;5090990;28;20386;-62
2021/12/19 08:52:04;;;;;;;8.75;6.13;;;;;;;2.18;99.86;98072.13;5091138;28;20444;-63
2021/12/19 08:54:30;;;;;;;8.35;6.15;;;;;;;2.44;98.97;98073.13;5091206;28;20390;-63
2021/12/19 08:56:56;;;;;;;8.77;5.73;;;;;;;2.55;97.63;98070.34;5089610;28;22042;-66
2021/12/19 08:59:21;;;;;;;7.17;5.67;;;;;;;2.33;97.29;98068.94;5091415;28;20386;-63
2021/12/19 09:01:48;;;;;;;8.90;5.85;;;;;;;2.49;97.38;98074.31;5091046;28;20413;-63
2021/12/19 09:04:14;;;;;;;7.75;5.78;;;;;;;2.47;98.65;98070.22;5090494;28;20751;-67
2021/12/19 09:06:39;;;;;;;7.35;5.78;;;;;;;2.60;96.61;98067.31;5087977;28;20393;-66
2021/12/19 09:09:06;;;;;;;8.20;5.77;;;;;;;2.62;95.66;98066.19;5090928;28;20425;-64
2021/12/19 09:11:33;;;;;;;9.30;6.20;;;;;;;2.60;97.26;98065.53;5091166;28;20385;-64
2021/12/19 09:13:59;;;;;;;7.88;5.40;;;;;;;2.56;97.08;98071.16;5092420;28;20447;-63
2021/12/19 09:16:26;;;;;;;8.32;5.40;;;;;;;2.54;97.09;98067.88;5095091;28;20392;-63
2021/12/19 09:18:52;;;;;;;7.90;5.63;;;;;;;2.67;96.13;98065.78;5095045;28;20398;-63
2021/12/19 09:21:17;;;;;;;7.55;5.00;;;;;;;2.48;98.17;98070.09;5093523;28;20417;-63
2021/12/19 09:23:42;;;;;;;7.33;4.80;;;;;;;2.53;98.18;98074.81;5094962;28;20491;-63
2021/12/19 09:26:08;;;;;;;6.40;4.80;;;;;;;2.66;97.75;98077.91;5094736;28;20422;-64
2021/12/19 09:28:34;;;;;;;6.80;5.13;;;;;;;2.72;96.73;98077.31;5094577;28;20435;-63
2021/12/19 09:31:00;;;;;;;6.88;4.80;;;;;;;2.72;97.47;98079.91;5093931;28;20394;-63
2021/12/19 09:33:25;;;;;;;6.60;4.70;;;;;;;2.62;97.93;98065.41;5092160;28;20393;-63
2021/12/19 09:35:51;;;;;;;6.68;4.90;;;;;;;2.78;97.10;98068.16;5094149;28;20739;-63
2021/12/19 09:38:18;;;;;;;5.33;4.30;;;;;;;2.84;97.40;98062.41;5095625;28;20463;-64
2021/12/19 09:40:45;;;;;;;5.90;4.22;;;;;;;2.91;96.29;98059.06;5093031;28;20550;-63
2021/12/19 09:43:41;;;;;;;5.85;4.47;;;;;;;3.14;94.98;98054.25;5092923;28;20398;-63
2021/12/19 09:46:09;;;;;;;5.85;4.47;;;;;;;3.09;94.89;98055.66;5094275;28;20401;-62
2021/12/19 09:48:37;;;;;;;5.20;4.10;;;;;;;2.82;96.63;98049.59;5094528;28;20422;-63
2021/12/19 09:51:03;;;;;;;5.28;4.10;;;;;;;2.61;98.63;98046.47;5090769;28;20418;-64
2021/12/19 09:53:28;;;;;;;5.73;3.90;;;;;;;2.95;96.32;98040.66;5094635;28;20475;-63
2021/12/19 09:55:53;;;;;;;4.60;3.70;;;;;;;2.92;96.39;98041.75;5092895;28;20389;-63
2021/12/19 09:58:19;;;;;;;3.93;3.30;;;;;;;2.92;96.79;98032.22;5094247;28;20425;-64
2021/12/19 10:00:44;;;;;;;3.30;3.00;;;;;;;2.98;96.31;98024.81;5093884;28;20413;-64
2021/12/19 10:03:11;;;;;;;3.67;3.03;;;;;;;2.93;96.23;98025.25;5093789;28;20413;-64
2021/12/19 10:05:36;;;;;;;3.67;3.17;;;;;;;2.88;95.68;98030.88;5091444;28;20394;-63
2021/12/19 10:08:03;;;;;;;3.93;3.53;;;;;;;3.00;95.46;98031.47;5093720;28;20858;-62
2021/12/19 10:10:59;;;;;;;4.53;3.45;;;;;;;3.18;93.68;98019.31;5089877;28;20866;-63
2021/12/19 10:13:33;;;;;;;4.57;3.28;;;;;;;3.43;93.20;98016.91;5086557;28;20405;-63
2021/12/19 10:15:58;;;;;;;3.25;2.95;;;;;;;3.35;91.47;98021.06;5093744;28;20871;-63
2021/12/19 10:18:24;;;;;;;3.65;3.20;;;;;;;3.08;92.96;98026.34;5093754;28;20394;-61
2021/12/19 10:20:58;;;;;;;4.53;3.70;;;;;;;3.10;94.09;98021.84;5093423;28;20921;-64
2021/12/19 10:23:31;;;;;;;3.85;3.38;;;;;;;3.06;94.19;98011.94;5092924;28;20393;-64
2021/12/19 10:26:06;;;;;;;4.85;3.50;;;;;;;3.47;92.91;97994.91;5093132;28;20394;-64
2021/12/19 10:28:32;;;;;;;3.25;2.95;;;;;;;3.12;93.95;97994.00;5093385;28;20386;-64
2021/12/19 10:31:00;;;;;;;3.65;3.00;;;;;;;3.20;93.74;97991.50;5093564;28;20885;-64
2021/12/19 10:33:28;;;;;;;4.47;3.03;;;;;;;3.49;91.92;97988.63;5082530;28;20386;-64
2021/12/19 10:35:55;;;;;;;4.10;3.17;;;;;;;3.52;91.70;97990.91;5092821;28;20538;-64
2021/12/19 10:38:43;;;;;;;3.28;2.92;;;;;;;3.83;89.42;97990.44;5091821;28;20797;-63
2021/12/19 10:41:20;;;;;;;3.43;2.80;;;;;;;3.85;88.00;97988.47;5093293;28;20484;-60
2021/12/19 10:44:01;;;;;;;2.60;2.40;;;;;;;3.45;87.58;97982.13;5092428;28;20452;-62
2021/12/19 10:46:37;;;;;;;2.50;2.30;;;;;;;3.40;88.76;97973.97;5092737;28;20480;-61
2021/12/19 10:49:05;;;;;;;3.65;2.72;;;;;;;3.21;89.88;97971.59;5091449;28;20973;-61
2021/12/19 10:51:37;;;;;;;3.30;2.40;;;;;;;3.31;92.38;97974.88;5091911;28;20477;-62
2021/12/19 10:54:07;;;;;;;2.30;2.10;;;;;;;3.33;92.11;97963.44;5091695;28;20447;-62
2021/12/19 10:56:35;;;;;;;4.60;3.45;;;;;;;3.63;90.11;97964.72;5091839;28;20879;-62
2021/12/19 10:59:04;;;;;;;17.30;7.35;;;;;;;3.63;91.26;97954.34;5092946;28;20417;-61
2021/12/19 11:01:36;;;;;;;7.32;4.32;;;;;;;3.69;91.59;97947.75;5092114;28;20409;-61
2021/12/19 11:04:09;;;;;;;3.83;2.80;;;;;;;3.73;90.14;97941.31;5091612;28;20770;-61
2021/12/19 11:06:51;;;;;;;3.33;3.03;;;;;;;3.44;91.40;97933.03;5092097;28;20401;-66
2021/12/19 11:09:19;;;;;;;3.40;2.90;;;;;;;3.67;89.69;97926.34;5092112;28;20480;-62
2021/12/19 11:11:57;;;;;;;3.05;2.72;;;;;;;3.73;90.52;97925.75;5091863;28;20439;-62
2021/12/19 11:14:33;;;;;;;2.97;2.65;;;;;;;3.52;89.53;97925.28;5092064;28;20405;-61
2021/12/19 11:17:03;;;;;;;4.00;2.67;;;;;;;3.55;89.94;97917.22;5086503;28;20394;-62
2021/12/19 11:19:29;;;;;;;2.75;2.53;;;;;;;3.62;90.52;97916.44;5091364;28;20397;-62
2021/12/19 11:21:54;;;;;;;3.07;2.63;;;;;;;3.64;90.26;97911.09;5091485;28;20406;-62
2021/12/19 11:24:22;;;;;;;3.23;2.80;;;;;;;3.73;89.44;97908.38;5091930;28;20871;-62
2021/12/19 11:26:54;;;;;;;2.80;2.50;;;;;;;3.81;89.01;97906.78;5091898;28;20386;-62
2021/12/19 11:29:21;;;;;;;3.22;2.67;;;;;;;4.01;87.42;97905.59;5090716;28;20394;-63
2021/12/19 11:31:51;;;;;;;3.67;2.97;;;;;;;3.83;88.63;97897.91;5091642;28;20484;-66
2021/12/19 11:34:24;;;;;;;3.17;2.80;;;;;;;3.82;88.66;97903.25;5091458;28;20439;-63
2021/12/19 11:36:56;;;;;;;3.10;2.80;;;;;;;3.97;88.16;97897.28;5090840;28;20471;-63
2021/12/19 11:39:28;;;;;;;3.55;2.83;;;;;;;3.93;88.04;97885.63;5091694;28;20394;-63
2021/12/19 11:42:04;;;;;;;2.97;2.60;;;;;;;3.84;87.97;97888.34;5091508;28;20415;-64
2021/12/19 11:47:45;;;;;;;3.17;2.88;;;;;;;3.83;87.91;97879.75;5088270;28;20394;-67
2021/12/19 11:50:21;;;;;;;4.82;3.38;;;;;;;3.84;87.54;97870.19;5078675;28;20451;-63
2021/12/19 11:52:46;;;;;;;4.45;3.20;;;;;;;3.47;88.50;97871.34;5091061;28;20455;-63
2021/12/19 11:55:14;;;;;;;3.07;2.77;;;;;;;3.34;89.48;97869.16;5090223;28;20958;-64
2021/12/19 11:58:08;;;;;;;3.10;2.80;;;;;;;3.54;88.90;97867.16;5091635;28;20849;-63
2021/12/19 12:00:43;;;;;;;3.72;3.30;;;;;;;3.64;89.38;97854.06;5090714;28;20394;-64
2021/12/19 12:03:11;;;;;;;3.08;2.80;;;;;;;3.71;88.13;97855.91;5089724;28;20874;-64
2021/12/19 12:05:53;;;;;;;4.03;3.43;;;;;;;3.81;87.95;97847.16;5090756;28;20397;-64
2021/12/19 12:08:24;;;;;;;3.72;2.95;;;;;;;3.71;88.06;97842.94;5091243;28;20890;-63
2021/12/19 12:10:54;;;;;;;3.65;3.30;;;;;;;4.06;87.22;97838.50;5091107;28;20428;-64
2021/12/19 12:13:33;;;;;;;3.63;3.28;;;;;;;3.88;88.23;97830.81;5091079;28;20704;-64
2021/12/19 12:16:28;;;;;;;3.38;3.08;;;;;;;3.62;88.45;97825.72;5101472;28;20384;-64
2021/12/19 12:19:04;;;;;;;3.33;3.03;;;;;;;4.23;85.93;97814.19;5090430;28;20512;-63
2021/12/19 12:21:39;;;;;;;3.33;3.00;;;;;;;4.02;86.92;97821.59;5090894;28;20406;-63
2021/12/19 12:24:25;;;;;;;3.50;3.20;;;;;;;4.08;85.79;97811.41;5090732;28;20382;-64
2021/12/19 12:27:04;;;;;;;3.80;3.17;;;;;;;3.71;87.24;97809.22;5090388;28;20405;-63
2021/12/19 12:29:31;;;;;;;3.85;3.42;;;;;;;3.32;89.39;97797.75;5091098;28;20858;-63
2021/12/19 12:31:56;;;;;;;3.70;3.40;;;;;;;3.29;90.76;97798.06;5090461;28;20924;-63
2021/12/19 12:34:21;;;;;;;4.07;3.53;;;;;;;3.21;91.13;97790.25;5090781;28;20389;-65
2021/12/19 12:36:48;;;;;;;3.60;3.30;;;;;;;3.16;90.64;97784.75;5090424;28;20410;-63